createdAt,value
2018-09-10T00:01:51.193Z,67.25
2018-09-10T00:04:19.435Z,67.31
2018-09-10T00:06:48.137Z,66.65
2018-09-10T00:09:16.433Z,65.59
2018-09-10T00:11:44.627Z,65.59
2018-09-10T00:14:12.954Z,65.23
2018-09-10T00:16:41.163Z,64.82
2018-09-10T00:19:09.391Z,65.02
2018-09-10T00:21:37.599Z,65.02
2018-09-10T00:24:05.843Z,65.38
2018-09-10T00:26:34.111Z,65.13
2018-09-10T00:29:02.387Z,64.88
2018-09-10T00:31:30.617Z,64.91
2018-09-10T00:33:58.831Z,64.79
2018-09-10T00:36:27.201Z,64.47
2018-09-10T00:38:55.431Z,64.48
2018-09-10T00:41:23.703Z,64.83
2018-09-10T00:43:52.008Z,64.49
2018-09-10T00:46:20.205Z,64.58
2018-09-10T00:48:48.535Z,64.85
2018-09-10T00:51:16.706Z,65.27
2018-09-10T00:53:44.933Z,66.50
2018-09-10T00:56:13.119Z,65.60
2018-09-10T00:58:41.323Z,66.39
2018-09-10T01:01:09.519Z,65.65
2018-09-10T01:03:37.796Z,65.68
2018-09-10T01:06:05.978Z,65.10
2018-09-10T01:08:34.215Z,65.55
2018-09-10T01:11:02.403Z,65.05
2018-09-10T01:13:30.659Z,65.05
2018-09-10T01:15:58.839Z,64.77
2018-09-10T01:18:27.099Z,65.59
2018-09-10T01:20:55.279Z,65.75
2018-09-10T01:23:23.454Z,65.56
2018-09-10T01:25:51.645Z,66.09
2018-09-10T01:28:19.923Z,65.48
2018-09-10T01:30:48.123Z,66.66
2018-09-10T01:33:21.665Z,65.87
2018-09-10T01:35:49.866Z,65.81
2018-09-10T01:38:18.060Z,65.83
2018-09-10T01:40:46.339Z,65.65
2018-09-10T01:43:14.582Z,65.24
2018-09-10T01:45:42.851Z,65.23
2018-09-10T01:48:11.058Z,65.25
2018-09-10T01:50:39.297Z,65.16
2018-09-10T01:53:07.497Z,65.59
2018-09-10T01:55:35.757Z,65.10
2018-09-10T01:58:04.037Z,65.03
2018-09-10T02:00:32.291Z,64.39
2018-09-10T02:03:00.493Z,64.20
2018-09-10T02:05:28.703Z,64.23
2018-09-10T02:07:56.992Z,64.04
2018-09-10T02:10:25.325Z,63.95
2018-09-10T02:12:53.502Z,63.44
2018-09-10T02:15:21.773Z,62.99
2018-09-10T02:17:49.984Z,63.25
2018-09-10T02:20:18.246Z,63.30
2018-09-10T02:22:46.434Z,63.27
2018-09-10T02:25:14.761Z,63.19
2018-09-10T02:27:43.020Z,62.71
2018-09-10T02:30:11.238Z,62.67
2018-09-10T02:32:39.481Z,62.91
2018-09-10T02:35:07.955Z,63.10
2018-09-10T02:37:36.204Z,63.20
2018-09-10T02:40:04.413Z,63.76
2018-09-10T02:42:32.599Z,63.06
2018-09-10T02:45:00.845Z,62.71
2018-09-10T02:47:30.026Z,63.00
2018-09-10T02:49:58.171Z,63.24
2018-09-10T02:52:26.351Z,63.27
2018-09-10T02:54:54.535Z,62.78
2018-09-10T02:57:22.710Z,64.18
2018-09-10T02:59:50.889Z,63.73
2018-09-10T03:02:19.084Z,63.27
2018-09-10T03:04:47.288Z,63.12
2018-09-10T03:07:16.202Z,63.30
2018-09-10T03:09:44.424Z,63.82
2018-09-10T03:12:12.553Z,64.09
2018-09-10T03:14:40.753Z,64.03
2018-09-10T03:17:08.943Z,63.98
2018-09-10T03:19:37.120Z,64.59
2018-09-10T03:22:05.421Z,64.57
2018-09-10T03:24:33.591Z,64.93
2018-09-10T03:27:01.780Z,64.80
2018-09-10T03:29:30.433Z,64.94
2018-09-10T03:31:58.589Z,65.32
2018-09-10T03:34:26.768Z,65.54
2018-09-10T03:36:55.116Z,65.66
2018-09-10T03:39:23.631Z,66.47
2018-09-10T03:41:51.776Z,65.47
2018-09-10T03:44:20.043Z,65.84
2018-09-10T03:46:48.216Z,65.87
2018-09-10T03:49:16.358Z,66.79
2018-09-10T03:51:44.539Z,66.37
2018-09-10T03:54:12.759Z,65.58
2018-09-10T03:56:40.963Z,65.09
2018-09-10T03:59:09.318Z,63.87
2018-09-10T04:01:37.588Z,63.54
2018-09-10T04:04:05.782Z,63.85
2018-09-10T04:06:34.237Z,63.78
2018-09-10T04:09:02.489Z,64.37
2018-09-10T04:11:30.734Z,63.82
2018-09-10T04:13:58.966Z,64.30
2018-09-10T04:16:27.149Z,63.95
2018-09-10T04:18:55.372Z,64.42
2018-09-10T04:21:23.551Z,64.28
2018-09-10T04:23:51.763Z,63.74
2018-09-10T04:26:21.631Z,64.25
2018-09-10T04:28:49.922Z,63.72
2018-09-10T04:31:18.288Z,65.05
2018-09-10T04:33:46.506Z,65.65
2018-09-10T04:36:14.892Z,65.53
2018-09-10T04:38:42.951Z,65.59
2018-09-10T04:41:11.197Z,65.72
2018-09-10T04:43:39.471Z,65.63
2018-09-10T04:46:07.671Z,65.91
2018-09-10T04:48:36.083Z,65.90
2018-09-10T04:51:04.335Z,65.82
2018-09-10T04:53:32.514Z,65.30
2018-09-10T04:56:00.827Z,64.93
2018-09-10T04:58:28.946Z,64.85
2018-09-10T05:00:57.331Z,64.80
2018-09-10T05:03:25.637Z,64.43
2018-09-10T05:05:53.985Z,64.73
2018-09-10T05:08:22.178Z,65.12
2018-09-10T05:10:50.515Z,64.92
2018-09-10T05:13:18.693Z,64.89
2018-09-10T05:15:46.889Z,64.75
2018-09-10T05:18:15.095Z,64.77
2018-09-10T05:20:43.315Z,65.63
2018-09-10T05:23:12.435Z,65.03
2018-09-10T05:25:40.741Z,64.87
2018-09-10T05:28:09.503Z,63.74
2018-09-10T05:30:40.918Z,63.53
2018-09-10T05:33:09.157Z,63.61
2018-09-10T05:35:37.693Z,63.45
2018-09-10T05:38:07.085Z,63.53
2018-09-10T05:40:35.617Z,63.48
2018-09-10T05:43:03.873Z,63.55
2018-09-10T05:45:32.989Z,63.62
2018-09-10T05:48:01.209Z,63.53
2018-09-10T05:50:29.383Z,63.81
2018-09-10T05:52:57.580Z,63.13
2018-09-10T05:55:25.736Z,63.35
2018-09-10T05:57:53.905Z,63.60
2018-09-10T06:00:22.140Z,63.90
2018-09-10T06:02:50.767Z,63.38
2018-09-10T06:05:18.974Z,63.17
2018-09-10T06:07:47.204Z,62.64
2018-09-10T06:10:15.503Z,62.14
2018-09-10T06:12:43.766Z,61.74
2018-09-10T06:15:11.969Z,61.93
2018-09-10T06:17:40.693Z,61.30
2018-09-10T06:20:08.921Z,60.32
2018-09-10T06:22:39.341Z,60.27
2018-09-10T06:25:07.588Z,59.45
2018-09-10T06:27:35.843Z,59.24
2018-09-10T06:30:04.011Z,58.44
2018-09-10T06:32:32.478Z,57.82
2018-09-10T06:35:00.716Z,57.52
2018-09-10T06:37:28.975Z,58.17
2018-09-10T06:39:57.171Z,57.76
2018-09-10T06:42:25.407Z,57.13
2018-09-10T06:44:54.051Z,57.42
2018-09-10T06:47:22.330Z,56.48
2018-09-10T06:49:50.619Z,56.29
2018-09-10T06:52:18.869Z,55.94
2018-09-10T06:54:47.281Z,55.74
2018-09-10T06:57:15.487Z,55.20
2018-09-10T06:59:43.862Z,55.00
2018-09-10T07:02:12.135Z,54.35
2018-09-10T07:04:40.740Z,53.79
2018-09-10T07:07:09.235Z,53.90
2018-09-10T07:09:37.551Z,53.37
2018-09-10T07:12:05.868Z,53.43
2018-09-10T07:14:34.270Z,53.98
2018-09-10T07:17:02.467Z,53.36
2018-09-10T07:19:30.704Z,52.97
2018-09-10T07:21:58.853Z,53.56
2018-09-10T07:24:27.087Z,53.24
2018-09-10T07:26:55.511Z,52.47
2018-09-10T07:29:23.731Z,51.68
2018-09-10T07:31:51.971Z,50.95
2018-09-10T07:34:20.134Z,49.55
2018-09-10T07:36:48.457Z,49.86
2018-09-10T07:39:16.644Z,49.30
2018-09-10T07:41:44.839Z,47.88
2018-09-10T07:44:13.221Z,48.52
2018-09-10T07:46:41.491Z,48.06
2018-09-10T07:49:09.601Z,48.13
2018-09-10T07:51:37.908Z,48.73
2018-09-10T07:54:06.147Z,49.51
2018-09-10T07:56:34.393Z,49.23
2018-09-10T07:59:02.668Z,49.33
2018-09-10T08:01:30.917Z,49.00
2018-09-10T08:03:59.185Z,49.05
2018-09-10T08:06:27.426Z,48.91
2018-09-10T08:08:55.668Z,48.52
2018-09-10T08:11:23.876Z,48.08
2018-09-10T08:13:52.086Z,47.92
2018-09-10T08:16:20.431Z,47.56
2018-09-10T08:18:49.531Z,47.28
2018-09-10T08:21:17.817Z,47.08
2018-09-10T08:23:45.994Z,46.70
2018-09-10T08:26:14.366Z,46.68
2018-09-10T08:28:42.527Z,47.16
2018-09-10T08:31:10.768Z,47.00
2018-09-10T08:33:39.190Z,46.38
2018-09-10T08:36:07.407Z,46.22
2018-09-10T08:38:35.768Z,46.56
2018-09-10T08:41:04.057Z,45.99
2018-09-10T08:43:32.292Z,45.49
2018-09-10T08:46:00.568Z,45.05
2018-09-10T08:48:28.884Z,44.71
2018-09-10T08:50:57.137Z,44.64
2018-09-10T08:53:25.361Z,43.70
2018-09-10T08:55:53.737Z,42.66
2018-09-10T08:58:22.161Z,42.05
2018-09-10T09:00:50.545Z,41.04
2018-09-10T09:03:19.257Z,40.94
2018-09-10T09:05:47.535Z,40.76
2018-09-10T09:08:15.819Z,40.46
2018-09-10T09:10:44.015Z,40.09
2018-09-10T09:13:12.329Z,39.84
2018-09-10T09:15:40.632Z,39.39
2018-09-10T09:18:08.823Z,39.66
2018-09-10T09:20:37.028Z,40.06
2018-09-10T09:23:05.377Z,39.80
2018-09-10T09:25:33.717Z,39.92
2018-09-10T09:28:01.951Z,39.75
2018-09-10T09:30:30.123Z,39.66
2018-09-10T09:32:58.452Z,39.67
2018-09-10T09:35:31.894Z,39.79
2018-09-10T09:38:05.519Z,40.45
2018-09-10T09:40:39.124Z,39.71
2018-09-10T09:43:12.858Z,39.11
2018-09-10T09:45:46.459Z,39.82
2018-09-10T09:48:14.734Z,38.99
2018-09-10T09:50:42.978Z,40.03
2018-09-10T09:53:11.385Z,39.34
2018-09-10T09:55:39.660Z,39.41
2018-09-10T09:58:07.895Z,38.92
2018-09-10T10:00:41.436Z,38.79
2018-09-10T10:03:16.200Z,38.91
2018-09-10T10:05:45.203Z,39.50
2018-09-10T10:08:13.460Z,38.14
2018-09-10T10:10:41.705Z,37.97
2018-09-10T10:13:10.166Z,38.63
2018-09-10T10:15:38.498Z,38.73
2018-09-10T10:18:06.880Z,38.48
2018-09-10T10:20:35.126Z,38.52
2018-09-10T10:23:03.654Z,38.00
2018-09-10T10:25:32.042Z,38.37
2018-09-10T10:28:00.677Z,38.29
2018-09-10T10:30:28.903Z,36.95
2018-09-10T10:32:57.323Z,37.70
2018-09-10T10:35:25.709Z,37.35
2018-09-10T10:37:53.904Z,36.55
2018-09-10T10:40:22.201Z,36.61
2018-09-10T10:42:50.367Z,35.44
2018-09-10T10:45:18.585Z,35.11
2018-09-10T10:47:47.506Z,35.70
2018-09-10T10:50:15.711Z,35.19
2018-09-10T10:52:44.220Z,36.33
2018-09-10T10:55:14.701Z,35.40
2018-09-10T10:57:42.908Z,35.12
2018-09-10T11:00:11.125Z,35.15
2018-09-10T11:02:39.279Z,35.53
2018-09-10T11:05:07.553Z,35.31
2018-09-10T11:07:35.792Z,35.41
2018-09-10T11:10:04.067Z,34.86
2018-09-10T11:12:32.211Z,35.32
2018-09-10T11:15:00.608Z,34.58
2018-09-10T11:17:28.839Z,33.98
2018-09-10T11:19:57.222Z,33.32
2018-09-10T11:22:26.143Z,33.70
2018-09-10T11:24:54.573Z,33.99
2018-09-10T11:27:22.865Z,33.30
2018-09-10T11:29:51.052Z,33.43
2018-09-10T11:32:19.513Z,32.72
2018-09-10T11:34:47.673Z,33.27
2018-09-10T11:37:15.880Z,33.74
2018-09-10T11:39:44.377Z,33.13
2018-09-10T11:42:12.543Z,33.31
2018-09-10T11:44:40.889Z,33.55
2018-09-10T11:47:09.473Z,32.97
2018-09-10T11:49:37.727Z,31.85
2018-09-10T11:52:05.902Z,32.09
2018-09-10T11:54:34.079Z,33.00
2018-09-10T11:57:02.525Z,32.94
2018-09-10T11:59:30.802Z,32.87
2018-09-10T12:01:59.010Z,32.95
2018-09-10T12:04:27.282Z,31.31
2018-09-10T12:06:56.092Z,31.87
2018-09-10T12:09:24.265Z,30.60
2018-09-10T12:11:52.531Z,30.21
2018-09-10T12:14:20.717Z,31.28
2018-09-10T12:16:48.983Z,30.75
2018-09-10T12:19:17.388Z,30.33
2018-09-10T12:21:45.640Z,31.12
2018-09-10T12:24:14.036Z,31.41
2018-09-10T12:26:42.342Z,31.39
2018-09-10T12:29:10.960Z,31.30
2018-09-10T12:31:39.337Z,31.04
2018-09-10T12:34:07.622Z,30.90
2018-09-10T12:36:35.895Z,30.12
2018-09-10T12:39:04.993Z,30.43
2018-09-10T12:41:33.401Z,29.63
2018-09-10T12:44:01.787Z,30.69
2018-09-10T12:46:30.022Z,30.77
2018-09-10T12:48:58.570Z,30.19
2018-09-10T12:51:26.855Z,30.78
2018-09-10T12:53:57.066Z,30.66
2018-09-10T12:56:27.102Z,30.93
2018-09-10T12:58:55.656Z,30.94
2018-09-10T13:01:24.016Z,30.94
2018-09-10T13:03:53.215Z,31.00
2018-09-10T13:06:21.568Z,31.66
2018-09-10T13:08:50.239Z,31.40
2018-09-10T13:11:18.592Z,31.31
2018-09-10T13:13:47.517Z,31.21
2018-09-10T13:16:16.032Z,30.68
2018-09-10T13:18:44.195Z,30.20
2018-09-10T13:21:13.686Z,30.58
2018-09-10T13:23:42.093Z,30.29
2018-09-10T13:26:10.307Z,29.89
2018-09-10T13:28:38.933Z,30.98
2018-09-10T13:31:07.160Z,29.59
2018-09-10T13:33:35.610Z,30.03
2018-09-10T13:36:03.769Z,30.91
2018-09-10T13:38:32.027Z,30.93
2018-09-10T13:41:00.684Z,31.50
2018-09-10T13:43:29.060Z,31.05
2018-09-10T13:48:50.428Z,31.21
2018-09-10T13:51:18.764Z,31.16
2018-09-10T13:53:47.005Z,31.45
2018-09-10T13:56:15.592Z,31.64
2018-09-10T13:58:44.125Z,31.60
2018-09-10T14:01:12.462Z,31.87
2018-09-10T14:03:42.444Z,32.22
2018-09-10T14:06:13.472Z,31.80
2018-09-10T14:08:42.078Z,31.65
2018-09-10T14:11:10.794Z,31.43
2018-09-10T14:13:39.646Z,32.23
2018-09-10T14:16:07.918Z,32.09
2018-09-10T14:18:36.123Z,31.61
2018-09-10T14:21:04.453Z,31.48
2018-09-10T14:23:33.248Z,31.86
2018-09-10T14:26:02.525Z,31.91
2018-09-10T14:28:31.960Z,31.69
2018-09-10T14:31:00.762Z,31.68
2018-09-10T14:33:29.077Z,31.59
2018-09-10T14:35:57.419Z,32.25
2018-09-10T14:38:26.362Z,31.45
2018-09-10T14:40:54.601Z,32.51
2018-09-10T14:43:22.960Z,31.92
2018-09-10T14:45:51.862Z,32.24
2018-09-10T14:48:20.077Z,32.24
2018-09-10T14:50:48.317Z,32.28
2018-09-10T14:53:16.567Z,32.07
2018-09-10T14:55:44.775Z,32.35
2018-09-10T14:58:13.298Z,32.34
2018-09-10T15:00:42.069Z,32.67
2018-09-10T15:03:10.454Z,33.25
2018-09-10T15:05:38.762Z,32.57
2018-09-10T15:08:07.166Z,33.22
2018-09-10T15:10:35.348Z,32.96
2018-09-10T15:13:03.615Z,34.18
2018-09-10T15:15:31.814Z,33.95
2018-09-10T15:17:59.994Z,34.78
2018-09-10T15:20:28.261Z,35.55
2018-09-10T15:22:56.518Z,36.11
2018-09-10T15:25:24.740Z,36.06
2018-09-10T15:27:53.134Z,36.15
2018-09-10T15:30:21.361Z,37.08
2018-09-10T15:32:49.591Z,37.01
2018-09-10T15:35:17.845Z,37.58
2018-09-10T15:37:46.065Z,38.03
2018-09-10T15:40:14.415Z,38.39
2018-09-10T15:42:42.962Z,38.70
2018-09-10T15:45:11.896Z,38.92
2018-09-10T15:47:40.550Z,38.66
2018-09-10T15:50:08.877Z,38.98
2018-09-10T15:52:37.103Z,38.94
2018-09-10T15:55:05.276Z,38.65
2018-09-10T15:57:33.907Z,39.09
2018-09-10T16:00:02.088Z,39.43
2018-09-10T16:02:30.219Z,39.29
2018-09-10T16:04:58.987Z,39.48
2018-09-10T16:07:27.181Z,39.29
2018-09-10T16:09:55.421Z,39.27
2018-09-10T16:12:23.677Z,39.79
2018-09-10T16:14:52.298Z,39.79
2018-09-10T16:17:21.265Z,40.36
2018-09-10T16:19:49.502Z,39.71
2018-09-10T16:22:17.790Z,40.57
2018-09-10T16:24:46.343Z,41.13
2018-09-10T16:27:14.673Z,40.49
2018-09-10T16:29:42.895Z,41.52
2018-09-10T16:32:11.141Z,40.89
2018-09-10T16:34:39.389Z,40.94
2018-09-10T16:37:07.596Z,41.68
2018-09-10T16:39:35.955Z,41.05
2018-09-10T16:42:04.761Z,41.34
2018-09-10T16:44:33.119Z,41.17
2018-09-10T16:47:01.453Z,42.08
2018-09-10T16:49:29.782Z,42.03
2018-09-10T16:51:57.964Z,41.45
2018-09-10T16:54:26.909Z,41.73
2018-09-10T16:56:55.107Z,41.47
2018-09-10T16:59:23.448Z,42.41
2018-09-10T17:01:51.622Z,42.40
2018-09-10T17:04:19.857Z,42.71
2018-09-10T17:06:48.626Z,43.51
2018-09-10T17:09:17.649Z,43.88
2018-09-10T17:11:46.121Z,43.60
2018-09-10T17:14:14.834Z,43.70
2018-09-10T17:16:43.016Z,44.02
2018-09-10T17:19:11.644Z,44.92
2018-09-10T17:21:41.482Z,44.21
2018-09-10T17:24:11.766Z,44.19
2018-09-10T17:26:40.614Z,44.05
2018-09-10T17:29:08.820Z,44.59
2018-09-10T17:31:36.997Z,44.14
2018-09-10T17:34:05.345Z,45.06
2018-09-10T17:36:33.533Z,44.43
2018-09-10T17:39:01.864Z,44.30
2018-09-10T17:41:30.085Z,44.41
2018-09-10T17:43:58.380Z,44.78
2018-09-10T17:46:26.614Z,44.63
2018-09-10T17:48:56.298Z,45.17
2018-09-10T17:51:25.014Z,44.88
2018-09-10T17:53:53.283Z,43.92
2018-09-10T17:56:22.505Z,45.05
2018-09-10T17:58:51.655Z,44.95
2018-09-10T18:01:19.862Z,44.28
2018-09-10T18:03:48.444Z,44.59
2018-09-10T18:06:16.886Z,44.14
2018-09-10T18:08:45.278Z,45.02
2018-09-10T18:11:13.476Z,44.90
2018-09-10T18:13:42.022Z,45.78
2018-09-10T18:16:10.232Z,45.64
2018-09-10T18:18:38.406Z,45.30
2018-09-10T18:21:06.729Z,45.58
2018-09-10T18:23:34.951Z,45.72
2018-09-10T18:26:03.264Z,46.27
2018-09-10T18:28:31.572Z,45.40
2018-09-10T18:31:02.932Z,45.72
2018-09-10T18:33:31.405Z,46.23
2018-09-10T18:36:00.120Z,46.45
2018-09-10T18:38:28.353Z,46.28
2018-09-10T18:40:56.589Z,46.46
2018-09-10T18:43:24.994Z,45.94
2018-09-10T18:45:53.310Z,45.96
2018-09-10T18:48:21.610Z,46.11
2018-09-10T18:50:49.876Z,46.06
2018-09-10T18:53:18.213Z,46.60
2018-09-10T18:55:46.948Z,46.39
2018-09-10T18:58:15.280Z,45.85
2018-09-10T19:00:44.304Z,45.63
2018-09-10T19:03:12.604Z,46.11
2018-09-10T19:05:41.220Z,46.48
2018-09-10T19:08:09.553Z,46.39
2018-09-10T19:10:37.836Z,46.52
2018-09-10T19:13:06.700Z,46.66
2018-09-10T19:15:35.026Z,46.83
2018-09-10T19:18:03.230Z,46.68
2018-09-10T19:20:31.522Z,46.84
2018-09-10T19:22:59.802Z,46.95
2018-09-10T19:25:28.085Z,47.86
2018-09-10T19:27:56.654Z,46.86
2018-09-10T19:30:25.698Z,47.72
2018-09-10T19:32:54.019Z,47.42
2018-09-10T19:35:22.963Z,47.97
2018-09-10T19:37:51.403Z,47.92
2018-09-10T19:40:19.736Z,47.40
2018-09-10T19:42:55.449Z,47.40
2018-09-10T19:45:24.241Z,47.87
2018-09-10T19:47:52.608Z,48.01
2018-09-10T19:50:20.977Z,48.51
2018-09-10T19:52:49.520Z,48.40
2018-09-10T19:55:17.826Z,48.39
2018-09-10T19:57:46.311Z,49.11
2018-09-10T20:00:21.069Z,48.30
2018-09-10T20:02:49.301Z,48.86
2018-09-10T20:05:17.694Z,49.33
2018-09-10T20:07:46.013Z,48.83
2018-09-10T20:10:14.688Z,49.28
2018-09-10T20:12:43.045Z,49.83
2018-09-10T20:15:11.479Z,49.13
2018-09-10T20:17:39.773Z,49.83
2018-09-10T20:20:08.399Z,49.55
2018-09-10T20:22:36.982Z,49.58
2018-09-10T20:25:05.462Z,50.69
2018-09-10T20:27:33.764Z,50.34
2018-09-10T20:30:02.009Z,50.82
2018-09-10T20:32:30.393Z,51.19
2018-09-10T20:34:59.392Z,51.74
2018-09-10T20:37:27.619Z,51.56
2018-09-10T20:39:56.020Z,52.15
2018-09-10T20:42:24.273Z,52.23
2018-09-10T20:44:52.516Z,52.09
2018-09-10T20:47:20.773Z,51.80
2018-09-10T20:49:49.298Z,51.24
2018-09-10T20:52:18.624Z,51.26
2018-09-10T20:54:48.314Z,51.46
2018-09-10T20:57:17.004Z,51.79
2018-09-10T20:59:45.527Z,51.75
2018-09-10T21:02:14.042Z,52.35
2018-09-10T21:04:42.365Z,52.14
2018-09-10T21:07:11.301Z,51.75
2018-09-10T21:09:39.740Z,51.54
2018-09-10T21:12:08.014Z,51.71
2018-09-10T21:14:36.396Z,52.06
2018-09-10T21:17:04.945Z,52.73
2018-09-10T21:19:33.845Z,52.62
2018-09-10T21:22:02.102Z,52.44
2018-09-10T21:24:31.400Z,51.75
2018-09-10T21:26:59.760Z,52.49
2018-09-10T21:29:28.498Z,52.16
2018-09-10T21:31:57.218Z,52.10
2018-09-10T21:34:25.636Z,52.04
2018-09-10T21:36:53.954Z,52.43
2018-09-10T21:39:22.405Z,52.18
2018-09-10T21:41:50.597Z,52.85
2018-09-10T21:44:18.954Z,52.79
2018-09-10T21:46:47.159Z,52.66
2018-09-10T21:49:15.319Z,52.28
2018-09-10T21:51:43.620Z,51.91
2018-09-10T21:54:12.130Z,52.25
2018-09-10T21:56:41.559Z,52.77
2018-09-10T21:59:09.832Z,52.99
2018-09-10T22:01:38.796Z,52.82
2018-09-10T22:04:07.665Z,52.65
2018-09-10T22:06:37.089Z,52.76
2018-09-10T22:09:06.694Z,53.09
2018-09-10T22:11:39.352Z,53.36
2018-09-10T22:14:08.188Z,53.20
2018-09-10T22:16:36.395Z,53.28
2018-09-10T22:19:04.618Z,53.42
2018-09-10T22:21:32.963Z,52.84
2018-09-10T22:24:01.193Z,53.24
2018-09-10T22:26:29.370Z,53.46
2018-09-10T22:28:57.532Z,53.45
2018-09-10T22:31:25.993Z,53.05
2018-09-10T22:33:54.321Z,53.62
2018-09-10T22:36:22.827Z,53.28
2018-09-10T22:38:51.150Z,53.93
2018-09-10T22:41:19.424Z,53.62
2018-09-10T22:43:47.647Z,53.08
2018-09-10T22:46:15.840Z,53.63
2018-09-10T22:48:44.019Z,53.51
2018-09-10T22:51:12.293Z,53.03
2018-09-10T22:53:40.541Z,54.05
2018-09-10T22:56:08.758Z,53.63
2018-09-10T22:58:37.042Z,53.80
2018-09-10T23:01:05.287Z,54.15
2018-09-10T23:03:33.562Z,54.51
2018-09-10T23:06:01.764Z,54.77
2018-09-10T23:08:30.210Z,53.84
2018-09-10T23:10:58.398Z,54.47
2018-09-10T23:13:26.577Z,54.20
2018-09-10T23:15:55.278Z,54.24
2018-09-10T23:18:23.454Z,54.94
2018-09-10T23:20:54.074Z,54.30
2018-09-10T23:23:22.490Z,54.45
2018-09-10T23:25:50.738Z,55.09
2018-09-10T23:28:19.080Z,55.22
2018-09-10T23:30:47.478Z,55.16
2018-09-10T23:33:15.781Z,55.09
2018-09-10T23:35:44.112Z,55.03
2018-09-10T23:38:16.234Z,54.93
2018-09-10T23:40:45.867Z,56.33
2018-09-10T23:43:14.159Z,55.67
2018-09-10T23:45:42.559Z,56.77
2018-09-10T23:48:10.823Z,56.74
2018-09-10T23:50:39.093Z,56.47
2018-09-10T23:53:07.347Z,57.03
2018-09-10T23:55:35.695Z,56.96
2018-09-10T23:58:03.888Z,57.28
